sensor_id;sensor_type;location;lat;lon;timestamp;pressure;altitude;pressure_sealevel;temperature;humidity
10392;BME280;5242;49.244;6.774;2022-12-29T00:03:02;98997.72;;;9.42;100.00
10392;BME280;5242;49.244;6.774;2022-12-29T00:10:54;98993.97;;;9.50;100.00
10392;BME280;5242;49.244;6.774;2022-12-29T00:18:45;98990.34;;;9.62;100.00
10392;BME280;5242;49.244;6.774;2022-12-29T00:26:37;98981.81;;;9.63;100.00
10392;BME280;5242;49.244;6.774;2022-12-29T00:34:47;98992.19;;;9.57;100.00
10392;BME280;5242;49.244;6.774;2022-12-29T00:42:58;98981.66;;;9.56;100.00
10392;BME280;5242;49.244;6.774;2022-12-29T00:51:08;98971.38;;;9.46;100.00
10392;BME280;5242;49.244;6.774;2022-12-29T00:59:02;98970.81;;;9.36;100.00
10392;BME280;5242;49.244;6.774;2022-12-29T01:06:53;98966.81;;;9.30;100.00
10392;BME280;5242;49.244;6.774;2022-12-29T01:14:45;98962.09;;;9.27;100.00
10392;BME280;5242;49.244;6.774;2022-12-29T01:22:37;98948.16;;;9.29;100.00
10392;BME280;5242;49.244;6.774;2022-12-29T01:30:29;98942.44;;;9.34;100.00
10392;BME280;5242;49.244;6.774;2022-12-29T01:38:21;98934.34;;;9.38;100.00
10392;BME280;5242;49.244;6.774;2022-12-29T01:46:33;98941.78;;;9.41;100.00
10392;BME280;5242;49.244;6.774;2022-12-29T01:54:27;98932.91;;;9.44;100.00
10392;BME280;5242;49.244;6.774;2022-12-29T02:02:20;98945.34;;;9.45;100.00
10392;BME280;5242;49.244;6.774;2022-12-29T02:10:13;98938.13;;;9.52;100.00
10392;BME280;5242;49.244;6.774;2022-12-29T02:18:25;98937.47;;;9.59;100.00
10392;BME280;5242;49.244;6.774;2022-12-29T02:34:50;98900.06;;;9.75;100.00
10392;BME280;5242;49.244;6.774;2022-12-29T02:50:52;98883.31;;;9.73;100.00
10392;BME280;5242;49.244;6.774;2022-12-29T02:58:46;98876.69;;;9.71;100.00
10392;BME280;5242;49.244;6.774;2022-12-29T03:06:57;98872.03;;;9.71;100.00
10392;BME280;5242;49.244;6.774;2022-12-29T03:15:02;98876.75;;;9.74;100.00
10392;BME280;5242;49.244;6.774;2022-12-29T03:23:17;98877.88;;;9.73;100.00
10392;BME280;5242;49.244;6.774;2022-12-29T03:31:12;98873.13;;;9.67;100.00
10392;BME280;5242;49.244;6.774;2022-12-29T03:39:13;98849.38;;;9.64;100.00
10392;BME280;5242;49.244;6.774;2022-12-29T03:47:06;98853.25;;;9.63;100.00
10392;BME280;5242;49.244;6.774;2022-12-29T03:54:58;98864.53;;;9.65;99.86
10392;BME280;5242;49.244;6.774;2022-12-29T04:02:50;98861.56;;;9.73;98.84
10392;BME280;5242;49.244;6.774;2022-12-29T04:10:42;98835.97;;;9.74;99.41
10392;BME280;5242;49.244;6.774;2022-12-29T04:18:34;98847.19;;;9.73;99.18
10392;BME280;5242;49.244;6.774;2022-12-29T04:26:27;98826.97;;;9.70;98.93
10392;BME280;5242;49.244;6.774;2022-12-29T04:34:19;98850.34;;;9.75;98.83
10392;BME280;5242;49.244;6.774;2022-12-29T04:42:11;98846.84;;;9.74;98.99
10392;BME280;5242;49.244;6.774;2022-12-29T04:50:04;98846.41;;;9.72;99.82
10392;BME280;5242;49.244;6.774;2022-12-29T04:57:56;98840.13;;;9.68;100.00
10392;BME280;5242;49.244;6.774;2022-12-29T05:05:47;98830.72;;;9.62;100.00
10392;BME280;5242;49.244;6.774;2022-12-29T05:13:39;98817.00;;;9.55;100.00
10392;BME280;5242;49.244;6.774;2022-12-29T05:21:31;98834.09;;;9.55;100.00
10392;BME280;5242;49.244;6.774;2022-12-29T05:29:23;98821.22;;;9.52;100.00
10392;BME280;5242;49.244;6.774;2022-12-29T05:37:15;98806.91;;;9.55;100.00
10392;BME280;5242;49.244;6.774;2022-12-29T05:45:09;98813.63;;;9.62;99.05
10392;BME280;5242;49.244;6.774;2022-12-29T05:53:01;98807.91;;;9.70;97.82
10392;BME280;5242;49.244;6.774;2022-12-29T06:00:52;98812.31;;;9.78;97.04
10392;BME280;5242;49.244;6.774;2022-12-29T06:08:44;98806.25;;;9.89;94.42
10392;BME280;5242;49.244;6.774;2022-12-29T06:16:36;98812.66;;;10.00;93.66
10392;BME280;5242;49.244;6.774;2022-12-29T06:24:28;98816.59;;;10.06;92.53
10392;BME280;5242;49.244;6.774;2022-12-29T06:32:20;98823.72;;;10.14;93.28
10392;BME280;5242;49.244;6.774;2022-12-29T06:40:12;98830.69;;;10.12;93.46
10392;BME280;5242;49.244;6.774;2022-12-29T06:48:04;98827.50;;;10.06;92.51
10392;BME280;5242;49.244;6.774;2022-12-29T06:55:56;98849.25;;;10.06;93.99
10392;BME280;5242;49.244;6.774;2022-12-29T07:03:48;98872.56;;;10.07;94.39
10392;BME280;5242;49.244;6.774;2022-12-29T07:11:40;98869.50;;;10.09;94.34
10392;BME280;5242;49.244;6.774;2022-12-29T07:19:33;98878.03;;;10.07;94.45
10392;BME280;5242;49.244;6.774;2022-12-29T07:27:24;98887.09;;;9.92;95.94
10392;BME280;5242;49.244;6.774;2022-12-29T07:35:16;98892.06;;;9.86;97.32
10392;BME280;5242;49.244;6.774;2022-12-29T07:43:08;98887.41;;;9.87;97.66
10392;BME280;5242;49.244;6.774;2022-12-29T07:51:00;98911.28;;;9.97;97.63
10392;BME280;5242;49.244;6.774;2022-12-29T07:58:52;98922.66;;;10.02;98.33
10392;BME280;5242;49.244;6.774;2022-12-29T08:06:44;98922.28;;;10.04;98.90
10392;BME280;5242;49.244;6.774;2022-12-29T08:14:37;98930.88;;;10.06;99.08
10392;BME280;5242;49.244;6.774;2022-12-29T08:22:29;98947.19;;;10.06;99.51
10392;BME280;5242;49.244;6.774;2022-12-29T08:30:22;98950.34;;;10.08;99.57
10392;BME280;5242;49.244;6.774;2022-12-29T08:38:14;98953.50;;;10.10;99.77
10392;BME280;5242;49.244;6.774;2022-12-29T08:46:06;98967.50;;;10.12;100.00
10392;BME280;5242;49.244;6.774;2022-12-29T08:53:59;98970.34;;;10.19;100.00
10392;BME280;5242;49.244;6.774;2022-12-29T09:01:51;98966.41;;;10.40;100.00
10392;BME280;5242;49.244;6.774;2022-12-29T09:09:43;98962.03;;;10.58;99.97
10392;BME280;5242;49.244;6.774;2022-12-29T09:17:35;98976.16;;;10.68;99.40
10392;BME280;5242;49.244;6.774;2022-12-29T09:25:36;98981.25;;;10.69;99.55
10392;BME280;5242;49.244;6.774;2022-12-29T09:33:28;98998.06;;;10.75;98.81
10392;BME280;5242;49.244;6.774;2022-12-29T09:41:26;99018.94;;;10.67;98.95
10392;BME280;5242;49.244;6.774;2022-12-29T09:49:44;99028.81;;;10.52;100.00
10392;BME280;5242;49.244;6.774;2022-12-29T09:57:42;99037.19;;;10.40;100.00
10392;BME280;5242;49.244;6.774;2022-12-29T10:05:48;99037.84;;;10.10;100.00
10392;BME280;5242;49.244;6.774;2022-12-29T10:13:52;99039.19;;;9.77;100.00
10392;BME280;5242;49.244;6.774;2022-12-29T10:22:14;99046.84;;;9.72;100.00
10392;BME280;5242;49.244;6.774;2022-12-29T10:30:12;99038.75;;;9.75;100.00
10392;BME280;5242;49.244;6.774;2022-12-29T10:38:15;99020.03;;;9.93;100.00
10392;BME280;5242;49.244;6.774;2022-12-29T10:46:13;99013.69;;;10.28;100.00
10392;BME280;5242;49.244;6.774;2022-12-29T10:54:19;99020.34;;;10.57;100.00
10392;BME280;5242;49.244;6.774;2022-12-29T11:02:29;99013.56;;;10.97;100.00
10392;BME280;5242;49.244;6.774;2022-12-29T11:10:35;98996.56;;;11.41;99.85
10392;BME280;5242;49.244;6.774;2022-12-29T11:18:38;99013.09;;;11.89;95.06
10392;BME280;5242;49.244;6.774;2022-12-29T11:26:32;99007.72;;;11.96;89.94
10392;BME280;5242;49.244;6.774;2022-12-29T11:34:34;99026.31;;;11.53;91.04
10392;BME280;5242;49.244;6.774;2022-12-29T11:42:37;99044.53;;;11.16;93.72
10392;BME280;5242;49.244;6.774;2022-12-29T11:50:31;99031.84;;;10.97;93.46
10392;BME280;5242;49.244;6.774;2022-12-29T11:58:36;99017.94;;;11.05;94.39
10392;BME280;5242;49.244;6.774;2022-12-29T12:06:29;98997.63;;;11.63;95.42
10392;BME280;5242;49.244;6.774;2022-12-29T12:22:45;99009.78;;;11.39;91.57
10392;BME280;5242;49.244;6.774;2022-12-29T12:30:44;99004.19;;;11.25;88.48
10392;BME280;5242;49.244;6.774;2022-12-29T12:38:51;98995.91;;;11.18;90.26
10392;BME280;5242;49.244;6.774;2022-12-29T13:04:23;99004.19;;;11.25;86.80
10392;BME280;5242;49.244;6.774;2022-12-29T13:36:18;98990.66;;;11.02;88.74
10392;BME280;5242;49.244;6.774;2022-12-29T13:44:22;98990.06;;;11.19;90.06
10392;BME280;5242;49.244;6.774;2022-12-29T13:52:24;99008.38;;;11.52;84.69
10392;BME280;5242;49.244;6.774;2022-12-29T14:00:21;99012.19;;;11.44;75.17
10392;BME280;5242;49.244;6.774;2022-12-29T14:08:16;99028.22;;;11.19;82.23
10392;BME280;5242;49.244;6.774;2022-12-29T14:16:33;99033.41;;;10.98;84.31
10392;BME280;5242;49.244;6.774;2022-12-29T14:24:32;99040.25;;;10.88;86.35
10392;BME280;5242;49.244;6.774;2022-12-29T14:40:25;99043.00;;;10.88;87.58
10392;BME280;5242;49.244;6.774;2022-12-29T14:48:39;99050.22;;;10.77;86.64
10392;BME280;5242;49.244;6.774;2022-12-29T14:56:33;99055.00;;;10.60;87.40
10392;BME280;5242;49.244;6.774;2022-12-29T15:04:30;99068.72;;;10.41;87.25
10392;BME280;5242;49.244;6.774;2022-12-29T15:12:50;99079.78;;;10.29;87.64
10392;BME280;5242;49.244;6.774;2022-12-29T15:20:45;99090.38;;;10.14;89.17
10392;BME280;5242;49.244;6.774;2022-12-29T15:28:44;99081.66;;;10.05;89.73
10392;BME280;5242;49.244;6.774;2022-12-29T15:36:38;99100.47;;;9.94;90.67
10392;BME280;5242;49.244;6.774;2022-12-29T15:44:42;99072.78;;;9.89;91.48
10392;BME280;5242;49.244;6.774;2022-12-29T15:52:35;99093.56;;;9.77;91.66
10392;BME280;5242;49.244;6.774;2022-12-29T16:00:34;99087.13;;;9.66;92.23
10392;BME280;5242;49.244;6.774;2022-12-29T16:08:38;99105.50;;;9.53;92.91
10392;BME280;5242;49.244;6.774;2022-12-29T16:25:44;99111.97;;;9.29;94.37
10392;BME280;5242;49.244;6.774;2022-12-29T16:41:58;99104.53;;;9.26;94.50
10392;BME280;5242;49.244;6.774;2022-12-29T16:49:52;99099.38;;;9.21;94.93
10392;BME280;5242;49.244;6.774;2022-12-29T16:57:47;99106.09;;;9.08;95.41
10392;BME280;5242;49.244;6.774;2022-12-29T17:05:41;99109.06;;;8.87;96.68
10392;BME280;5242;49.244;6.774;2022-12-29T17:13:32;99119.59;;;8.73;96.84
10392;BME280;5242;49.244;6.774;2022-12-29T17:21:24;99129.50;;;8.65;97.26
10392;BME280;5242;49.244;6.774;2022-12-29T17:29:37;99133.59;;;8.59;98.01
10392;BME280;5242;49.244;6.774;2022-12-29T17:37:33;99133.44;;;8.52;97.68
10392;BME280;5242;49.244;6.774;2022-12-29T17:45:27;99141.41;;;8.44;98.59
10392;BME280;5242;49.244;6.774;2022-12-29T17:53:25;99148.53;;;8.37;99.16
10392;BME280;5242;49.244;6.774;2022-12-29T18:01:18;99150.28;;;8.29;99.20
10392;BME280;5242;49.244;6.774;2022-12-29T18:09:12;99152.88;;;8.25;100.00
10392;BME280;5242;49.244;6.774;2022-12-29T18:17:11;99175.97;;;8.47;99.51
10392;BME280;5242;49.244;6.774;2022-12-29T18:33:14;99158.41;;;8.29;100.00
10392;BME280;5242;49.244;6.774;2022-12-29T18:41:21;99174.22;;;8.27;100.00
10392;BME280;5242;49.244;6.774;2022-12-29T18:49:14;99175.28;;;8.22;100.00
10392;BME280;5242;49.244;6.774;2022-12-29T18:57:05;99188.75;;;8.19;100.00
10392;BME280;5242;49.244;6.774;2022-12-29T19:13:33;99180.09;;;8.29;100.00
10392;BME280;5242;49.244;6.774;2022-12-29T19:21:26;99192.72;;;8.37;100.00
10392;BME280;5242;49.244;6.774;2022-12-29T19:54:04;99239.53;;;8.46;99.42
10392;BME280;5242;49.244;6.774;2022-12-29T20:01:56;99228.44;;;8.52;99.23
10392;BME280;5242;49.244;6.774;2022-12-29T20:09:49;99260.63;;;8.53;98.82
10392;BME280;5242;49.244;6.774;2022-12-29T20:17:41;99274.47;;;8.48;98.43
10392;BME280;5242;49.244;6.774;2022-12-29T20:25:55;99274.25;;;8.41;98.57
10392;BME280;5242;49.244;6.774;2022-12-29T20:33:47;99269.84;;;8.36;98.84
10392;BME280;5242;49.244;6.774;2022-12-29T20:41:39;99293.47;;;8.36;99.44
10392;BME280;5242;49.244;6.774;2022-12-29T20:49:31;99303.31;;;8.40;99.19
10392;BME280;5242;49.244;6.774;2022-12-29T20:57:25;99311.13;;;8.42;99.46
10392;BME280;5242;49.244;6.774;2022-12-29T21:05:18;99312.81;;;8.34;99.00
10392;BME280;5242;49.244;6.774;2022-12-29T21:13:16;99311.03;;;8.26;99.34
10392;BME280;5242;49.244;6.774;2022-12-29T21:21:23;99337.59;;;8.20;99.93
10392;BME280;5242;49.244;6.774;2022-12-29T21:29:15;99343.13;;;8.24;100.00
10392;BME280;5242;49.244;6.774;2022-12-29T21:37:07;99334.22;;;8.23;99.63
10392;BME280;5242;49.244;6.774;2022-12-29T21:44:59;99335.47;;;8.14;98.64
10392;BME280;5242;49.244;6.774;2022-12-29T21:53:11;99349.97;;;7.93;97.80
10392;BME280;5242;49.244;6.774;2022-12-29T22:01:03;99367.59;;;7.75;97.96
10392;BME280;5242;49.244;6.774;2022-12-29T22:09:14;99370.97;;;7.59;98.21
10392;BME280;5242;49.244;6.774;2022-12-29T22:17:32;99379.75;;;7.44;98.17
10392;BME280;5242;49.244;6.774;2022-12-29T22:25:28;99374.50;;;7.27;98.26
10392;BME280;5242;49.244;6.774;2022-12-29T22:33:20;99379.31;;;7.09;98.24
10392;BME280;5242;49.244;6.774;2022-12-29T22:41:12;99394.56;;;6.92;99.28
10392;BME280;5242;49.244;6.774;2022-12-29T22:49:04;99407.72;;;6.82;99.25
10392;BME280;5242;49.244;6.774;2022-12-29T22:56:56;99425.16;;;6.72;99.37
10392;BME280;5242;49.244;6.774;2022-12-29T23:04:48;99431.50;;;6.55;99.14
10392;BME280;5242;49.244;6.774;2022-12-29T23:12:56;99440.41;;;6.26;98.73
10392;BME280;5242;49.244;6.774;2022-12-29T23:20:48;99454.56;;;5.93;99.02
10392;BME280;5242;49.244;6.774;2022-12-29T23:28:40;99442.84;;;5.72;99.94
10392;BME280;5242;49.244;6.774;2022-12-29T23:36:33;99448.28;;;5.54;100.00
10392;BME280;5242;49.244;6.774;2022-12-29T23:44:25;99453.75;;;5.37;100.00
10392;BME280;5242;49.244;6.774;2022-12-29T23:52:17;99452.34;;;5.22;100.00
